createdAt,value
2023-02-11T00:01:53.732Z,72.81
2023-02-11T00:04:16.382Z,72.76
2023-02-11T00:06:39.191Z,72.67
2023-02-11T00:09:02.482Z,72.79
2023-02-11T00:11:30.357Z,73.04
2023-02-11T00:13:52.964Z,73.57
2023-02-11T00:16:19.319Z,73.97
2023-02-11T00:18:42.159Z,74.12
2023-02-11T00:21:18.815Z,74.36
2023-02-11T00:23:42.232Z,74.31
2023-02-11T00:26:11.896Z,74.33
2023-02-11T00:28:35.943Z,74.54
2023-02-11T00:30:59.290Z,74.40
2023-02-11T00:33:22.008Z,74.50
2023-02-11T00:35:44.627Z,74.59
2023-02-11T00:38:07.972Z,74.69
2023-02-11T00:40:30.741Z,74.80
2023-02-11T00:42:53.362Z,74.93
2023-02-11T00:45:15.970Z,75.46
2023-02-11T00:47:39.018Z,75.52
2023-02-11T00:50:04.668Z,75.99
2023-02-11T00:52:27.519Z,76.23
2023-02-11T00:54:50.104Z,76.20
2023-02-11T00:57:12.764Z,76.46
2023-02-11T00:59:35.489Z,76.57
2023-02-11T01:01:58.222Z,76.43
2023-02-11T01:04:20.988Z,76.57
2023-02-11T01:06:43.560Z,76.53
2023-02-11T01:09:06.271Z,76.57
2023-02-11T01:11:30.982Z,76.46
2023-02-11T01:13:53.608Z,76.31
2023-02-11T01:16:18.290Z,76.26
2023-02-11T01:18:42.813Z,75.98
2023-02-11T01:21:06.000Z,76.35
2023-02-11T01:23:28.567Z,75.97
2023-02-11T01:25:51.543Z,75.78
2023-02-11T01:28:23.251Z,76.11
2023-02-11T01:30:46.976Z,76.76
2023-02-11T01:33:09.607Z,77.00
2023-02-11T01:35:33.279Z,77.03
2023-02-11T01:37:55.915Z,76.90
2023-02-11T01:40:20.396Z,76.89
2023-02-11T01:42:44.315Z,76.82
2023-02-11T01:45:44.586Z,77.05
2023-02-11T01:48:09.011Z,77.09
2023-02-11T01:50:32.083Z,76.99
2023-02-11T01:53:14.981Z,77.06
2023-02-11T01:55:58.441Z,76.85
2023-02-11T01:58:22.478Z,77.54
2023-02-11T02:00:45.674Z,77.60
2023-02-11T02:03:13.205Z,77.91
2023-02-11T02:05:56.015Z,78.07
2023-02-11T02:08:40.636Z,78.13
2023-02-11T02:11:03.844Z,78.37
2023-02-11T02:13:28.086Z,78.46
2023-02-11T02:15:58.131Z,78.44
2023-02-11T02:18:51.863Z,78.50
2023-02-11T02:21:51.856Z,78.55
2023-02-11T02:24:35.034Z,78.16
2023-02-11T02:27:13.772Z,78.00
2023-02-11T02:29:57.199Z,77.78
2023-02-11T02:32:38.513Z,76.86
2023-02-11T02:35:10.347Z,76.83
2023-02-11T02:37:45.621Z,76.87
2023-02-11T02:40:15.807Z,77.50
2023-02-11T02:42:40.491Z,77.17
2023-02-11T02:45:03.572Z,77.28
2023-02-11T02:47:26.815Z,76.89
2023-02-11T02:49:49.535Z,76.58
2023-02-11T02:52:28.936Z,76.59
2023-02-11T02:54:51.497Z,77.03
2023-02-11T02:57:38.558Z,77.34
2023-02-11T03:00:07.010Z,78.00
2023-02-11T03:02:36.339Z,78.09
2023-02-11T03:05:27.719Z,78.96
2023-02-11T03:08:05.825Z,79.56
2023-02-11T03:10:33.254Z,79.89
2023-02-11T03:12:57.098Z,79.62
2023-02-11T03:15:22.576Z,79.07
2023-02-11T03:17:49.414Z,79.22
2023-02-11T03:20:14.729Z,79.22
2023-02-11T03:22:48.244Z,78.70
2023-02-11T03:25:11.088Z,78.68
2023-02-11T03:27:42.295Z,78.48
2023-02-11T03:30:06.814Z,78.37
2023-02-11T03:32:35.557Z,77.93
2023-02-11T03:35:11.891Z,78.28
2023-02-11T03:37:45.390Z,78.22
2023-02-11T03:40:11.916Z,77.73
2023-02-11T03:42:44.094Z,77.76
2023-02-11T03:45:11.081Z,77.75
2023-02-11T03:47:37.118Z,77.36
2023-02-11T03:50:02.182Z,76.94
2023-02-11T03:52:26.351Z,77.14
2023-02-11T03:54:55.904Z,77.51
2023-02-11T03:57:18.489Z,77.15
2023-02-11T03:59:58.599Z,76.77
2023-02-11T04:02:24.167Z,76.60
2023-02-11T04:04:47.255Z,76.12
2023-02-11T04:07:12.009Z,76.51
2023-02-11T04:09:35.376Z,76.63
2023-02-11T04:11:58.215Z,77.62
2023-02-11T04:14:20.789Z,77.97
2023-02-11T04:16:43.420Z,78.12
2023-02-11T04:19:06.242Z,78.29
2023-02-11T04:21:28.800Z,78.26
2023-02-11T04:23:51.427Z,78.45
2023-02-11T04:26:14.054Z,78.16
2023-02-11T04:28:36.767Z,78.18
2023-02-11T04:30:59.417Z,78.06
2023-02-11T04:33:23.238Z,77.97
2023-02-11T04:35:46.042Z,77.06
2023-02-11T04:38:08.595Z,76.44
2023-02-11T04:40:31.692Z,76.44
2023-02-11T04:42:54.284Z,76.77
2023-02-11T04:45:17.165Z,76.94
2023-02-11T04:47:39.756Z,76.41
2023-02-11T04:50:02.497Z,76.14
2023-02-11T04:52:25.380Z,76.55
2023-02-11T04:54:48.021Z,76.01
2023-02-11T04:57:10.630Z,75.93
2023-02-11T04:59:33.387Z,75.68
2023-02-11T05:01:55.981Z,75.84
2023-02-11T05:04:18.849Z,76.05
2023-02-11T05:06:41.546Z,77.09
2023-02-11T05:09:04.166Z,78.01
2023-02-11T05:11:26.824Z,78.74
2023-02-11T05:13:49.600Z,78.49
2023-02-11T05:16:13.094Z,78.13
2023-02-11T05:18:38.399Z,78.06
2023-02-11T05:21:06.529Z,78.72
2023-02-11T05:23:29.164Z,78.86
2023-02-11T05:25:51.959Z,78.26
2023-02-11T05:28:15.490Z,77.15
2023-02-11T05:30:38.197Z,76.86
2023-02-11T05:33:00.982Z,77.26
2023-02-11T05:35:23.993Z,77.20
2023-02-11T05:37:46.625Z,77.66
2023-02-11T05:40:09.754Z,78.17
2023-02-11T05:42:32.396Z,78.05
2023-02-11T05:44:54.935Z,77.70
2023-02-11T05:47:17.864Z,77.82
2023-02-11T05:49:40.511Z,77.79
2023-02-11T05:52:03.500Z,77.63
2023-02-11T05:54:26.316Z,77.06
2023-02-11T05:56:48.967Z,77.01
2023-02-11T05:59:14.227Z,76.92
2023-02-11T06:01:36.971Z,76.83
2023-02-11T06:03:59.641Z,77.11
2023-02-11T06:06:22.320Z,76.98
2023-02-11T06:08:44.890Z,76.98
2023-02-11T06:11:07.531Z,76.32
2023-02-11T06:13:29.979Z,75.98
2023-02-11T06:15:57.382Z,76.12
2023-02-11T06:18:19.945Z,75.43
2023-02-11T06:20:42.566Z,74.84
2023-02-11T06:23:05.275Z,74.38
2023-02-11T06:25:27.866Z,73.66
2023-02-11T06:27:50.613Z,73.24
2023-02-11T06:30:14.011Z,73.14
2023-02-11T06:32:44.308Z,72.24
2023-02-11T06:35:09.985Z,71.52
2023-02-11T06:37:35.218Z,71.49
2023-02-11T06:39:57.858Z,71.11
2023-02-11T06:42:20.557Z,70.97
2023-02-11T06:44:43.230Z,70.41
2023-02-11T06:47:05.815Z,69.13
2023-02-11T06:49:29.116Z,67.51
2023-02-11T06:51:51.676Z,67.12
2023-02-11T06:54:14.890Z,65.39
2023-02-11T06:56:40.417Z,66.92
2023-02-11T06:59:03.559Z,67.66
2023-02-11T07:01:27.371Z,67.07
2023-02-11T07:03:51.044Z,66.13
2023-02-11T07:06:16.831Z,64.25
2023-02-11T07:08:40.613Z,62.29
2023-02-11T07:11:14.407Z,61.75
2023-02-11T07:13:37.544Z,61.07
2023-02-11T07:16:05.322Z,60.60
2023-02-11T07:18:28.137Z,60.61
2023-02-11T07:20:50.758Z,61.38
2023-02-11T07:23:13.442Z,63.25
2023-02-11T07:25:36.550Z,63.80
2023-02-11T07:27:59.539Z,64.77
2023-02-11T07:30:22.357Z,64.34
2023-02-11T07:32:44.960Z,64.53
2023-02-11T07:35:07.786Z,64.41
2023-02-11T07:37:30.458Z,64.92
2023-02-11T07:39:53.045Z,64.38
2023-02-11T07:42:15.786Z,64.53
2023-02-11T07:44:38.599Z,63.45
2023-02-11T07:47:01.453Z,63.27
2023-02-11T07:49:24.368Z,63.63
2023-02-11T07:51:49.121Z,62.98
2023-02-11T07:54:12.403Z,62.40
2023-02-11T07:56:35.145Z,62.09
2023-02-11T07:59:01.700Z,61.96
2023-02-11T08:01:28.474Z,63.65
2023-02-11T08:03:51.762Z,63.12
2023-02-11T08:06:16.248Z,62.60
2023-02-11T08:08:39.616Z,62.96
2023-02-11T08:11:28.721Z,63.54
2023-02-11T08:13:52.467Z,62.95
2023-02-11T08:16:22.427Z,63.05
2023-02-11T08:18:45.139Z,62.48
2023-02-11T08:21:10.028Z,62.21
2023-02-11T08:23:32.792Z,62.62
2023-02-11T08:25:55.334Z,61.01
2023-02-11T08:28:18.021Z,61.40
2023-02-11T08:30:40.790Z,61.92
2023-02-11T08:33:03.769Z,61.14
2023-02-11T08:35:26.326Z,60.48
2023-02-11T08:37:49.058Z,59.77
2023-02-11T08:40:11.882Z,59.83
2023-02-11T08:42:34.580Z,60.56
2023-02-11T08:44:57.204Z,60.00
2023-02-11T08:47:19.849Z,59.22
2023-02-11T08:49:43.089Z,58.81
2023-02-11T08:52:06.756Z,58.45
2023-02-11T08:54:30.076Z,58.71
2023-02-11T08:56:52.820Z,58.54
2023-02-11T08:59:17.194Z,58.73
2023-02-11T09:01:40.133Z,58.91
2023-02-11T09:04:02.784Z,59.09
2023-02-11T09:06:26.571Z,58.86
2023-02-11T09:08:51.676Z,59.20
2023-02-11T09:11:14.439Z,59.41
2023-02-11T09:13:37.695Z,60.65
2023-02-11T09:16:02.296Z,60.95
2023-02-11T09:18:25.518Z,60.96
2023-02-11T09:20:48.304Z,60.87
2023-02-11T09:23:11.306Z,61.35
2023-02-11T09:25:33.936Z,60.50
2023-02-11T09:27:56.600Z,60.21
2023-02-11T09:30:19.865Z,59.96
2023-02-11T09:32:42.986Z,59.13
2023-02-11T09:35:05.942Z,58.62
2023-02-11T09:37:28.524Z,58.25
2023-02-11T09:39:51.492Z,56.71
2023-02-11T09:42:38.591Z,56.93
2023-02-11T09:45:02.681Z,56.86
2023-02-11T09:47:30.477Z,56.74
2023-02-11T09:50:10.686Z,56.62
2023-02-11T09:52:42.402Z,55.93
2023-02-11T09:55:27.541Z,55.41
2023-02-11T09:57:50.352Z,54.75
2023-02-11T10:00:40.138Z,53.69
2023-02-11T10:03:41.846Z,53.29
2023-02-11T10:06:07.241Z,52.42
2023-02-11T10:09:03.966Z,53.27
2023-02-11T10:11:52.454Z,52.43
2023-02-11T10:14:54.828Z,51.35
2023-02-11T10:17:44.146Z,50.89
2023-02-11T10:20:19.785Z,50.41
2023-02-11T10:23:14.652Z,50.11
2023-02-11T10:25:39.882Z,49.61
2023-02-11T10:28:31.220Z,49.02
2023-02-11T10:30:59.863Z,49.76
2023-02-11T10:33:34.491Z,51.12
2023-02-11T10:35:57.236Z,51.52
2023-02-11T10:38:20.111Z,52.65
2023-02-11T10:40:43.093Z,53.20
2023-02-11T10:43:11.124Z,52.77
2023-02-11T10:45:38.486Z,52.40
2023-02-11T10:48:04.239Z,53.42
2023-02-11T10:50:29.780Z,53.92
2023-02-11T10:53:21.223Z,53.67
2023-02-11T10:55:51.171Z,53.37
2023-02-11T10:58:24.051Z,53.68
2023-02-11T11:00:52.979Z,54.47
2023-02-11T11:03:21.993Z,55.09
2023-02-11T11:05:51.023Z,54.56
2023-02-11T11:08:13.704Z,53.99
2023-02-11T11:10:47.005Z,53.41
2023-02-11T11:13:34.393Z,53.29
2023-02-11T11:16:12.144Z,51.67
2023-02-11T11:18:35.116Z,51.51
2023-02-11T11:21:01.330Z,50.98
2023-02-11T11:23:25.065Z,51.47
2023-02-11T11:26:25.910Z,51.16
2023-02-11T11:29:02.621Z,50.31
2023-02-11T11:31:28.559Z,50.72
2023-02-11T11:33:53.255Z,49.92
2023-02-11T11:36:21.967Z,49.10
2023-02-11T11:38:50.995Z,48.45
2023-02-11T11:41:16.313Z,47.88
2023-02-11T11:43:38.853Z,49.12
2023-02-11T11:46:02.960Z,49.57
2023-02-11T11:48:37.652Z,50.05
2023-02-11T11:51:04.234Z,49.94
2023-02-11T11:53:36.313Z,50.57
2023-02-11T11:56:22.846Z,50.76
2023-02-11T11:58:45.874Z,49.68
2023-02-11T12:01:15.733Z,49.83
2023-02-11T12:04:15.892Z,49.33
2023-02-11T12:06:47.247Z,49.29
2023-02-11T12:09:31.093Z,48.90
2023-02-11T12:12:15.353Z,47.92
2023-02-11T12:14:49.851Z,47.48
2023-02-11T12:17:57.853Z,46.37
2023-02-11T12:20:39.983Z,45.48
2023-02-11T12:23:14.863Z,44.86
2023-02-11T12:25:57.778Z,43.86
2023-02-11T12:28:37.466Z,43.46
2023-02-11T12:31:18.553Z,43.11
2023-02-11T12:34:01.733Z,43.63
2023-02-11T12:36:36.656Z,43.09
2023-02-11T12:42:48.813Z,42.49
2023-02-11T12:45:11.321Z,42.84
2023-02-11T12:47:59.448Z,42.11
2023-02-11T12:50:43.162Z,42.41
2023-02-11T12:53:05.706Z,43.24
2023-02-11T12:55:37.238Z,44.17
2023-02-11T12:58:01.862Z,43.58
2023-02-11T13:00:43.711Z,43.71
2023-02-11T13:03:17.041Z,43.92
2023-02-11T13:05:54.232Z,43.77
2023-02-11T13:08:26.059Z,43.87
2023-02-11T13:10:54.781Z,43.61
2023-02-11T13:13:26.209Z,43.66
2023-02-11T13:15:56.135Z,44.29
2023-02-11T13:18:49.589Z,44.87
2023-02-11T13:21:15.189Z,45.32
2023-02-11T13:23:59.982Z,45.42
2023-02-11T13:26:38.055Z,45.28
2023-02-11T13:29:18.959Z,44.53
2023-02-11T13:31:41.880Z,44.01
2023-02-11T13:34:23.339Z,43.10
2023-02-11T13:36:54.947Z,42.91
2023-02-11T13:39:21.693Z,42.28
2023-02-11T13:41:52.210Z,42.80
2023-02-11T13:44:19.345Z,43.19
2023-02-11T13:47:05.010Z,43.55
2023-02-11T13:49:32.345Z,43.79
2023-02-11T13:51:56.752Z,43.53
2023-02-11T13:54:40.055Z,43.04
2023-02-11T13:57:21.082Z,43.01
2023-02-11T13:59:49.936Z,41.72
2023-02-11T14:02:47.136Z,41.85
2023-02-11T14:05:34.568Z,41.52
2023-02-11T14:08:28.116Z,42.30
2023-02-11T14:10:54.192Z,42.73
2023-02-11T14:13:33.078Z,42.92
2023-02-11T14:16:10.879Z,43.55
2023-02-11T14:18:45.790Z,43.93
2023-02-11T14:21:17.143Z,43.81
2023-02-11T14:23:41.020Z,44.30
2023-02-11T14:26:21.037Z,44.46
2023-02-11T14:28:46.879Z,45.03
2023-02-11T14:31:18.466Z,45.23
2023-02-11T14:34:04.277Z,45.91
2023-02-11T14:36:46.372Z,46.40
2023-02-11T14:39:25.191Z,46.54
2023-02-11T14:41:51.178Z,46.78
2023-02-11T14:44:28.338Z,47.02
2023-02-11T14:46:55.164Z,47.42
2023-02-11T14:49:23.687Z,47.82
2023-02-11T14:51:47.414Z,47.60
2023-02-11T14:54:18.218Z,47.41
2023-02-11T14:56:42.364Z,47.10
2023-02-11T14:59:17.687Z,47.14
2023-02-11T15:01:42.441Z,47.21
2023-02-11T15:04:21.603Z,47.36
2023-02-11T15:06:49.687Z,47.67
2023-02-11T15:09:26.913Z,47.87
2023-02-11T15:11:52.087Z,47.94
2023-02-11T15:14:17.415Z,48.53
2023-02-11T15:16:43.561Z,49.30
2023-02-11T15:19:07.854Z,49.44
2023-02-11T15:21:34.800Z,49.62
2023-02-11T15:24:01.050Z,50.01
2023-02-11T15:26:24.045Z,50.68
2023-02-11T15:28:52.199Z,50.74
2023-02-11T15:31:16.799Z,51.09
2023-02-11T15:33:39.761Z,50.55
2023-02-11T15:36:03.008Z,50.65
2023-02-11T15:38:25.890Z,50.36
2023-02-11T15:40:58.484Z,51.05
2023-02-11T15:43:21.413Z,51.00
2023-02-11T15:46:02.576Z,51.27
2023-02-11T15:48:34.244Z,51.27
2023-02-11T15:51:05.111Z,51.21
2023-02-11T15:53:40.509Z,51.64
2023-02-11T15:56:20.213Z,51.92
2023-02-11T15:58:47.588Z,51.95
2023-02-11T16:01:11.426Z,51.78
2023-02-11T16:03:34.629Z,52.75
2023-02-11T16:05:57.286Z,52.16
2023-02-11T16:08:22.203Z,52.54
2023-02-11T16:10:58.951Z,52.60
2023-02-11T16:13:21.596Z,52.88
2023-02-11T16:16:02.526Z,53.07
2023-02-11T16:18:39.286Z,52.89
2023-02-11T16:21:04.214Z,53.08
2023-02-11T16:23:31.516Z,53.66
2023-02-11T16:26:08.983Z,53.50
2023-02-11T16:28:32.868Z,54.40
2023-02-11T16:30:57.403Z,54.56
2023-02-11T16:33:20.795Z,54.24
2023-02-11T16:35:47.595Z,54.41
2023-02-11T16:38:10.722Z,54.54
2023-02-11T16:40:33.605Z,54.93
2023-02-11T16:42:56.540Z,54.87
2023-02-11T16:45:19.633Z,54.86
2023-02-11T16:47:43.379Z,55.48
2023-02-11T16:50:09.328Z,55.72
2023-02-11T16:52:32.545Z,55.47
2023-02-11T16:54:55.410Z,55.46
2023-02-11T16:57:21.458Z,55.13
2023-02-11T16:59:45.290Z,55.24
2023-02-11T17:02:24.069Z,55.05
2023-02-11T17:04:47.088Z,54.83
2023-02-11T17:07:09.940Z,54.93
2023-02-11T17:09:33.208Z,54.66
2023-02-11T17:11:56.105Z,54.50
2023-02-11T17:14:19.851Z,54.36
2023-02-11T17:16:43.238Z,54.84
2023-02-11T17:19:06.243Z,54.76
2023-02-11T17:21:31.499Z,55.03
2023-02-11T17:23:54.367Z,54.40
2023-02-11T17:26:17.181Z,54.93
2023-02-11T17:28:40.300Z,55.13
2023-02-11T17:31:07.503Z,55.20
2023-02-11T17:33:30.091Z,55.50
2023-02-11T17:35:53.189Z,55.44
2023-02-11T17:38:16.617Z,55.61
2023-02-11T17:40:39.412Z,55.27
2023-02-11T17:43:02.207Z,55.37
2023-02-11T17:45:24.800Z,55.54
2023-02-11T17:47:49.233Z,55.82
2023-02-11T17:50:12.132Z,56.15
2023-02-11T17:52:36.705Z,56.27
2023-02-11T17:54:59.516Z,56.31
2023-02-11T17:57:22.568Z,55.98
2023-02-11T17:59:45.689Z,55.78
2023-02-11T18:02:12.450Z,55.81
2023-02-11T18:04:36.341Z,55.74
2023-02-11T18:06:59.369Z,56.29
2023-02-11T18:09:22.314Z,56.53
2023-02-11T18:11:45.850Z,56.95
2023-02-11T18:14:10.170Z,56.70
2023-02-11T18:16:36.385Z,56.34
2023-02-11T18:18:59.095Z,55.83
2023-02-11T18:21:22.956Z,55.81
2023-02-11T18:23:46.374Z,55.94
2023-02-11T18:26:11.031Z,57.09
2023-02-11T18:28:34.095Z,57.37
2023-02-11T18:31:00.806Z,57.64
2023-02-11T18:33:23.987Z,57.58
2023-02-11T18:35:49.197Z,58.13
2023-02-11T18:38:12.297Z,58.30
2023-02-11T18:40:35.612Z,58.49
2023-02-11T18:42:58.607Z,58.46
2023-02-11T18:45:21.259Z,58.44
2023-02-11T18:47:44.265Z,58.11
2023-02-11T18:50:09.044Z,57.79
2023-02-11T18:52:33.199Z,57.79
2023-02-11T18:54:56.085Z,57.88
2023-02-11T18:57:18.963Z,58.02
2023-02-11T18:59:42.950Z,57.88
2023-02-11T19:02:05.602Z,58.08
2023-02-11T19:04:28.458Z,57.87
2023-02-11T19:06:52.222Z,57.35
2023-02-11T19:09:17.893Z,57.62
2023-02-11T19:11:46.943Z,57.58
2023-02-11T19:14:10.466Z,57.34
2023-02-11T19:16:33.349Z,57.15
2023-02-11T19:18:57.176Z,57.34
2023-02-11T19:21:20.717Z,57.19
2023-02-11T19:23:46.695Z,57.20
2023-02-11T19:26:09.574Z,57.20
2023-02-11T19:28:33.597Z,57.02
2023-02-11T19:30:56.646Z,56.88
2023-02-11T19:33:19.693Z,56.71
2023-02-11T19:35:42.545Z,55.70
2023-02-11T19:38:05.725Z,55.31
2023-02-11T19:40:28.774Z,55.39
2023-02-11T19:42:52.171Z,55.30
2023-02-11T19:45:15.172Z,55.32
2023-02-11T19:47:38.189Z,54.95
2023-02-11T19:50:01.227Z,55.07
2023-02-11T19:52:25.841Z,54.84
2023-02-11T19:54:48.772Z,54.98
2023-02-11T19:57:11.705Z,54.67
2023-02-11T19:59:34.554Z,54.30
2023-02-11T20:01:57.749Z,54.03
2023-02-11T20:04:20.979Z,53.73
2023-02-11T20:06:45.884Z,53.95
2023-02-11T20:09:12.651Z,53.94
2023-02-11T20:11:36.872Z,54.06
2023-02-11T20:14:00.618Z,54.39
2023-02-11T20:16:36.813Z,54.77
2023-02-11T20:19:07.642Z,55.13
2023-02-11T20:21:32.134Z,56.39
2023-02-11T20:23:55.610Z,56.22
2023-02-11T20:26:24.531Z,56.23
2023-02-11T20:28:49.469Z,56.38
2023-02-11T20:31:13.592Z,57.02
2023-02-11T20:33:37.025Z,57.19
2023-02-11T20:36:05.993Z,57.86
2023-02-11T20:38:28.838Z,58.11
2023-02-11T20:40:52.502Z,58.66
2023-02-11T20:43:15.996Z,59.27
2023-02-11T20:45:39.171Z,59.89
2023-02-11T20:48:02.294Z,61.00
2023-02-11T20:50:25.682Z,61.30
2023-02-11T20:52:48.717Z,61.49
2023-02-11T20:55:12.072Z,61.71
2023-02-11T20:57:35.188Z,61.83
2023-02-11T20:59:58.159Z,61.14
2023-02-11T21:02:24.632Z,61.21
2023-02-11T21:04:48.025Z,60.79
2023-02-11T21:07:11.113Z,60.47
2023-02-11T21:09:35.166Z,60.47
2023-02-11T21:11:58.237Z,60.36
2023-02-11T21:14:22.984Z,60.41
2023-02-11T21:16:46.505Z,60.66
2023-02-11T21:19:09.598Z,60.98
2023-02-11T21:21:32.520Z,60.66
2023-02-11T21:23:56.189Z,61.10
2023-02-11T21:26:19.399Z,61.39
2023-02-11T21:28:42.336Z,61.53
2023-02-11T21:31:06.009Z,62.05
2023-02-11T21:33:29.656Z,62.11
2023-02-11T21:36:00.317Z,62.67
2023-02-11T21:38:24.419Z,62.76
2023-02-11T21:40:47.377Z,63.08
2023-02-11T21:43:10.270Z,63.28
2023-02-11T21:45:33.056Z,63.70
2023-02-11T21:47:55.855Z,63.91
2023-02-11T21:50:19.159Z,64.35
2023-02-11T21:52:41.862Z,64.42
2023-02-11T21:55:08.451Z,64.81
2023-02-11T21:57:31.509Z,64.86
2023-02-11T21:59:54.275Z,65.32
2023-02-11T22:02:17.090Z,65.54
2023-02-11T22:04:39.875Z,65.97
2023-02-11T22:07:05.682Z,66.17
2023-02-11T22:09:29.277Z,66.35
2023-02-11T22:11:53.094Z,66.63
2023-02-11T22:14:16.333Z,66.64
2023-02-11T22:16:39.012Z,66.89
2023-02-11T22:19:02.588Z,67.78
2023-02-11T22:21:26.720Z,68.49
2023-02-11T22:23:50.321Z,68.88
2023-02-11T22:26:16.486Z,69.13
2023-02-11T22:28:40.660Z,69.87
2023-02-11T22:31:03.388Z,70.23
2023-02-11T22:33:27.336Z,70.69
2023-02-11T22:35:57.522Z,70.96
2023-02-11T22:38:20.209Z,71.51
2023-02-11T22:40:43.737Z,71.83
2023-02-11T22:43:06.396Z,72.18
2023-02-11T22:45:29.011Z,72.52
2023-02-11T22:47:51.623Z,72.70
2023-02-11T22:50:14.197Z,73.33
2023-02-11T22:52:36.887Z,73.86
2023-02-11T22:55:00.493Z,74.49
2023-02-11T22:57:23.142Z,75.04
2023-02-11T22:59:45.971Z,75.25
2023-02-11T23:02:08.743Z,75.44
2023-02-11T23:04:31.673Z,75.63
2023-02-11T23:06:54.288Z,76.01
2023-02-11T23:09:17.132Z,76.28
2023-02-11T23:11:41.124Z,76.47
2023-02-11T23:14:05.209Z,76.67
2023-02-11T23:16:31.309Z,76.89
2023-02-11T23:18:54.400Z,76.83
2023-02-11T23:21:21.694Z,77.12
2023-02-11T23:23:45.457Z,77.09
2023-02-11T23:26:17.740Z,77.16
2023-02-11T23:28:42.393Z,77.33
2023-02-11T23:31:18.888Z,77.51
2023-02-11T23:33:41.959Z,77.71
2023-02-11T23:36:05.048Z,77.76
2023-02-11T23:38:27.703Z,77.88
2023-02-11T23:40:50.339Z,77.55
2023-02-11T23:43:13.040Z,77.49
2023-02-11T23:45:35.666Z,77.25
2023-02-11T23:48:00.006Z,77.29
2023-02-11T23:50:22.565Z,77.46
2023-02-11T23:52:46.471Z,77.31
2023-02-11T23:55:09.671Z,76.98
2023-02-11T23:57:33.181Z,76.81
2023-02-11T23:59:55.865Z,76.91
